sensor_id;sensor_type;location;lat;lon;timestamp;pressure;altitude;pressure_sealevel;temperature;humidity
61119;BME280;51448;51.660;5.824;2023-04-01T00:01:06;99018.41;;;9.87;100.00
61119;BME280;51448;51.660;5.824;2023-04-01T00:03:34;99012.31;;;9.86;100.00
61119;BME280;51448;51.660;5.824;2023-04-01T00:06:02;99016.69;;;9.86;100.00
61119;BME280;51448;51.660;5.824;2023-04-01T00:08:30;99016.69;;;9.86;100.00
61119;BME280;51448;51.660;5.824;2023-04-01T00:10:58;99014.19;;;9.84;100.00
61119;BME280;51448;51.660;5.824;2023-04-01T00:13:26;99017.72;;;9.83;100.00
61119;BME280;51448;51.660;5.824;2023-04-01T00:15:55;99015.94;;;9.84;100.00
61119;BME280;51448;51.660;5.824;2023-04-01T00:18:24;99016.81;;;9.84;100.00
61119;BME280;51448;51.660;5.824;2023-04-01T00:20:52;99020.34;;;9.83;100.00
61119;BME280;51448;51.660;5.824;2023-04-01T00:23:20;99025.53;;;9.85;100.00
61119;BME280;51448;51.660;5.824;2023-04-01T00:25:48;99019.50;;;9.83;100.00
61119;BME280;51448;51.660;5.824;2023-04-01T00:28:17;99029.06;;;9.84;100.00
61119;BME280;51448;51.660;5.824;2023-04-01T00:30:47;99023.91;;;9.82;100.00
61119;BME280;51448;51.660;5.824;2023-04-01T00:33:15;99017.78;;;9.82;100.00
61119;BME280;51448;51.660;5.824;2023-04-01T00:35:44;99032.63;;;9.83;100.00
61119;BME280;51448;51.660;5.824;2023-04-01T00:38:12;99030.09;;;9.81;100.00
61119;BME280;51448;51.660;5.824;2023-04-01T00:40:42;99023.16;;;9.80;100.00
61119;BME280;51448;51.660;5.824;2023-04-01T00:43:13;99029.56;;;9.75;100.00
61119;BME280;51448;51.660;5.824;2023-04-01T00:45:48;99022.59;;;9.74;100.00
61119;BME280;51448;51.660;5.824;2023-04-01T00:48:22;99030.34;;;9.77;100.00
61119;BME280;51448;51.660;5.824;2023-04-01T00:50:57;99032.13;;;9.76;100.00
61119;BME280;51448;51.660;5.824;2023-04-01T00:53:30;99027.78;;;9.75;100.00
61119;BME280;51448;51.660;5.824;2023-04-01T00:56:05;99037.38;;;9.76;100.00
61119;BME280;51448;51.660;5.824;2023-04-01T00:58:42;99037.38;;;9.76;100.00
61119;BME280;51448;51.660;5.824;2023-04-01T01:01:13;99039.13;;;9.76;100.00
61119;BME280;51448;51.660;5.824;2023-04-01T01:03:42;99040.06;;;9.75;100.00
61119;BME280;51448;51.660;5.824;2023-04-01T01:06:46;99039.13;;;9.76;100.00
61119;BME280;51448;51.660;5.824;2023-04-01T01:09:31;99038.34;;;9.74;100.00
61119;BME280;51448;51.660;5.824;2023-04-01T01:15:06;99047.19;;;9.73;100.00
61119;BME280;51448;51.660;5.824;2023-04-01T01:17:59;99041.94;;;9.73;100.00
61119;BME280;51448;51.660;5.824;2023-04-01T01:20:53;99044.56;;;9.73;100.00
61119;BME280;51448;51.660;5.824;2023-04-01T01:26:52;99051.59;;;9.72;100.00
61119;BME280;51448;51.660;5.824;2023-04-01T01:35:38;99054.28;;;9.71;100.00
61119;BME280;51448;51.660;5.824;2023-04-01T01:38:17;99055.38;;;9.66;100.00
61119;BME280;51448;51.660;5.824;2023-04-01T01:41:09;99056.28;;;9.65;100.00
61119;BME280;51448;51.660;5.824;2023-04-01T01:43:43;99058.78;;;9.69;100.00
61119;BME280;51448;51.660;5.824;2023-04-01T01:46:22;99063.00;;;9.71;100.00
61119;BME280;51448;51.660;5.824;2023-04-01T01:48:54;99062.09;;;9.72;100.00
61119;BME280;51448;51.660;5.824;2023-04-01T01:51:24;99069.09;;;9.72;100.00
61119;BME280;51448;51.660;5.824;2023-04-01T01:53:55;99056.84;;;9.72;100.00
61119;BME280;51448;51.660;5.824;2023-04-01T01:56:26;99062.00;;;9.74;100.00
61119;BME280;51448;51.660;5.824;2023-04-01T01:59:01;99071.56;;;9.75;100.00
61119;BME280;51448;51.660;5.824;2023-04-01T02:01:39;99071.56;;;9.75;100.00
61119;BME280;51448;51.660;5.824;2023-04-01T02:04:14;99074.34;;;9.72;100.00
61119;BME280;51448;51.660;5.824;2023-04-01T02:07:13;99072.50;;;9.74;100.00
61119;BME280;51448;51.660;5.824;2023-04-01T02:09:48;99067.41;;;9.71;100.00
61119;BME280;51448;51.660;5.824;2023-04-01T02:12:16;99079.59;;;9.72;100.00
61119;BME280;51448;51.660;5.824;2023-04-01T02:14:54;99078.75;;;9.71;100.00
61119;BME280;51448;51.660;5.824;2023-04-01T02:17:29;99079.69;;;9.70;100.00
61119;BME280;51448;51.660;5.824;2023-04-01T02:20:04;99078.81;;;9.70;100.00
61119;BME280;51448;51.660;5.824;2023-04-01T02:22:39;99085.78;;;9.71;100.00
61119;BME280;51448;51.660;5.824;2023-04-01T02:25:14;99087.56;;;9.70;100.00
61119;BME280;51448;51.660;5.824;2023-04-01T02:27:46;99096.28;;;9.71;100.00
61119;BME280;51448;51.660;5.824;2023-04-01T02:30:16;99090.19;;;9.70;100.00
61119;BME280;51448;51.660;5.824;2023-04-01T02:32:46;99095.44;;;9.70;100.00
61119;BME280;51448;51.660;5.824;2023-04-01T02:35:16;99095.44;;;9.70;100.00
61119;BME280;51448;51.660;5.824;2023-04-01T02:37:48;99087.47;;;9.72;100.00
61119;BME280;51448;51.660;5.824;2023-04-01T02:40:18;99092.72;;;9.72;100.00
61119;BME280;51448;51.660;5.824;2023-04-01T02:42:46;99090.09;;;9.72;100.00
61119;BME280;51448;51.660;5.824;2023-04-01T02:45:14;99101.53;;;9.71;100.00
61119;BME280;51448;51.660;5.824;2023-04-01T02:47:42;99101.53;;;9.71;100.00
61119;BME280;51448;51.660;5.824;2023-04-01T02:50:10;99104.16;;;9.71;100.00
61119;BME280;51448;51.660;5.824;2023-04-01T02:52:38;99110.44;;;9.68;100.00
61119;BME280;51448;51.660;5.824;2023-04-01T02:55:07;99103.53;;;9.65;100.00
61119;BME280;51448;51.660;5.824;2023-04-01T02:57:35;99106.16;;;9.65;100.00
61119;BME280;51448;51.660;5.824;2023-04-01T03:00:04;99105.41;;;9.63;100.00
61119;BME280;51448;51.660;5.824;2023-04-01T03:02:38;99107.25;;;9.61;100.00
61119;BME280;51448;51.660;5.824;2023-04-01T03:05:07;99108.19;;;9.60;100.00
61119;BME280;51448;51.660;5.824;2023-04-01T03:07:35;99114.34;;;9.59;100.00
61119;BME280;51448;51.660;5.824;2023-04-01T03:10:03;99119.59;;;9.59;100.00
61119;BME280;51448;51.660;5.824;2023-04-01T03:12:32;99109.22;;;9.58;100.00
61119;BME280;51448;51.660;5.824;2023-04-01T03:15:00;99123.31;;;9.55;100.00
61119;BME280;51448;51.660;5.824;2023-04-01T03:17:39;99120.78;;;9.54;100.00
61119;BME280;51448;51.660;5.824;2023-04-01T03:20:08;99119.84;;;9.55;100.00
61119;BME280;51448;51.660;5.824;2023-04-01T03:22:38;99125.16;;;9.53;100.00
61119;BME280;51448;51.660;5.824;2023-04-01T03:25:09;99131.38;;;9.52;100.00
61119;BME280;51448;51.660;5.824;2023-04-01T03:27:38;99134.91;;;9.51;100.00
61119;BME280;51448;51.660;5.824;2023-04-01T03:30:08;99122.72;;;9.50;100.00
61119;BME280;51448;51.660;5.824;2023-04-01T03:32:45;99131.44;;;9.51;100.00
61119;BME280;51448;51.660;5.824;2023-04-01T03:35:13;99127.97;;;9.50;100.00
61119;BME280;51448;51.660;5.824;2023-04-01T03:37:41;99128.88;;;9.49;100.00
61119;BME280;51448;51.660;5.824;2023-04-01T03:40:09;99128.03;;;9.49;100.00
61119;BME280;51448;51.660;5.824;2023-04-01T03:42:37;99131.59;;;9.48;100.00
61119;BME280;51448;51.660;5.824;2023-04-01T03:45:05;99133.28;;;9.49;100.00
61119;BME280;51448;51.660;5.824;2023-04-01T03:47:34;99132.50;;;9.46;100.00
61119;BME280;51448;51.660;5.824;2023-04-01T03:50:02;99132.50;;;9.46;100.00
61119;BME280;51448;51.660;5.824;2023-04-01T03:52:30;99126.50;;;9.44;100.00
61119;BME280;51448;51.660;5.824;2023-04-01T03:54:57;99137.00;;;9.44;100.00
61119;BME280;51448;51.660;5.824;2023-04-01T03:57:25;99127.50;;;9.42;100.00
61119;BME280;51448;51.660;5.824;2023-04-01T03:59:57;99131.03;;;9.41;100.00
61119;BME280;51448;51.660;5.824;2023-04-01T04:02:26;99136.28;;;9.41;100.00
61119;BME280;51448;51.660;5.824;2023-04-01T04:04:54;99135.44;;;9.40;100.00
61119;BME280;51448;51.660;5.824;2023-04-01T04:07:22;99139.00;;;9.39;100.00
61119;BME280;51448;51.660;5.824;2023-04-01T04:10:03;99132.88;;;9.39;100.00
61119;BME280;51448;51.660;5.824;2023-04-01T04:12:51;99148.63;;;9.39;100.00
61119;BME280;51448;51.660;5.824;2023-04-01T04:15:41;99143.56;;;9.36;100.00
61119;BME280;51448;51.660;5.824;2023-04-01T04:18:29;99146.19;;;9.36;100.00
61119;BME280;51448;51.660;5.824;2023-04-01T04:21:17;99141.00;;;9.34;100.00
61119;BME280;51448;51.660;5.824;2023-04-01T04:24:05;99160.13;;;9.36;100.00
61119;BME280;51448;51.660;5.824;2023-04-01T04:27:13;99150.66;;;9.34;100.00
61119;BME280;51448;51.660;5.824;2023-04-01T04:30:16;99157.69;;;9.33;100.00
61119;BME280;51448;51.660;5.824;2023-04-01T04:33:04;99154.19;;;9.33;100.00
61119;BME280;51448;51.660;5.824;2023-04-01T04:35:55;99157.75;;;9.32;100.00
61119;BME280;51448;51.660;5.824;2023-04-01T04:38:44;99164.84;;;9.30;100.00
61119;BME280;51448;51.660;5.824;2023-04-01T04:41:32;99166.69;;;9.27;100.00
61119;BME280;51448;51.660;5.824;2023-04-01T04:44:03;99158.91;;;9.26;100.00
61119;BME280;51448;51.660;5.824;2023-04-01T04:46:32;99175.47;;;9.26;100.00
61119;BME280;51448;51.660;5.824;2023-04-01T04:49:10;99172.00;;;9.26;100.00
61119;BME280;51448;51.660;5.824;2023-04-01T04:51:37;99167.72;;;9.25;100.00
61119;BME280;51448;51.660;5.824;2023-04-01T04:54:06;99172.84;;;9.26;100.00
61119;BME280;51448;51.660;5.824;2023-04-01T04:56:56;99173.78;;;9.25;100.00
61119;BME280;51448;51.660;5.824;2023-04-01T04:59:25;99178.19;;;9.25;100.00
61119;BME280;51448;51.660;5.824;2023-04-01T05:02:05;99187.81;;;9.24;100.00
61119;BME280;51448;51.660;5.824;2023-04-01T05:04:35;99180.06;;;9.23;100.00
61119;BME280;51448;51.660;5.824;2023-04-01T05:07:05;99176.72;;;9.19;100.00
61119;BME280;51448;51.660;5.824;2023-04-01T05:09:33;99184.59;;;9.19;100.00
61119;BME280;51448;51.660;5.824;2023-04-01T05:12:02;99190.69;;;9.20;100.00
61119;BME280;51448;51.660;5.824;2023-04-01T05:14:47;99185.50;;;9.18;100.00
61119;BME280;51448;51.660;5.824;2023-04-01T05:17:15;99193.38;;;9.18;100.00
61119;BME280;51448;51.660;5.824;2023-04-01T05:19:43;99198.63;;;9.18;100.00
61119;BME280;51448;51.660;5.824;2023-04-01T05:22:10;99201.25;;;9.18;100.00
61119;BME280;51448;51.660;5.824;2023-04-01T05:24:38;99202.19;;;9.17;100.00
61119;BME280;51448;51.660;5.824;2023-04-01T05:27:06;99200.47;;;9.16;100.00
61119;BME280;51448;51.660;5.824;2023-04-01T05:29:37;99209.28;;;9.15;100.00
61119;BME280;51448;51.660;5.824;2023-04-01T05:32:10;99214.50;;;9.15;100.00
61119;BME280;51448;51.660;5.824;2023-04-01T05:34:38;99212.72;;;9.16;100.00
61119;BME280;51448;51.660;5.824;2023-04-01T05:37:06;99222.44;;;9.14;100.00
61119;BME280;51448;51.660;5.824;2023-04-01T05:39:38;99222.38;;;9.15;100.00
61119;BME280;51448;51.660;5.824;2023-04-01T05:42:07;99227.63;;;9.15;100.00
61119;BME280;51448;51.660;5.824;2023-04-01T05:44:35;99229.41;;;9.15;100.00
61119;BME280;51448;51.660;5.824;2023-04-01T05:47:06;99237.28;;;9.15;100.00
61119;BME280;51448;51.660;5.824;2023-04-01T05:49:34;99232.03;;;9.15;100.00
61119;BME280;51448;51.660;5.824;2023-04-01T05:52:03;99236.34;;;9.16;100.00
61119;BME280;51448;51.660;5.824;2023-04-01T05:54:34;99231.94;;;9.16;100.00
61119;BME280;51448;51.660;5.824;2023-04-01T05:57:02;99242.38;;;9.18;100.00
61119;BME280;51448;51.660;5.824;2023-04-01T05:59:29;99239.75;;;9.18;100.00
61119;BME280;51448;51.660;5.824;2023-04-01T06:01:58;99244.91;;;9.19;100.00
61119;BME280;51448;51.660;5.824;2023-04-01T06:04:28;99245.81;;;9.18;100.00
61119;BME280;51448;51.660;5.824;2023-04-01T06:07:09;99251.84;;;9.20;100.00
61119;BME280;51448;51.660;5.824;2023-04-01T06:09:39;99256.19;;;9.21;100.00
61119;BME280;51448;51.660;5.824;2023-04-01T06:14:51;99258.59;;;9.26;100.00
61119;BME280;51448;51.660;5.824;2023-04-01T06:23:45;99277.72;;;9.28;100.00
61119;BME280;51448;51.660;5.824;2023-04-01T06:26:34;99289.94;;;9.29;100.00
61119;BME280;51448;51.660;5.824;2023-04-01T06:38:30;99298.38;;;9.36;100.00
61119;BME280;51448;51.660;5.824;2023-04-01T06:54:24;99317.84;;;9.49;100.00
61119;BME280;51448;51.660;5.824;2023-04-01T06:57:33;99326.34;;;9.54;100.00
61119;BME280;51448;51.660;5.824;2023-04-01T07:00:14;99324.50;;;9.56;100.00
61119;BME280;51448;51.660;5.824;2023-04-01T07:02:55;99331.31;;;9.60;100.00
61119;BME280;51448;51.660;5.824;2023-04-01T07:05:39;99335.50;;;9.64;100.00
61119;BME280;51448;51.660;5.824;2023-04-01T07:08:14;99338.81;;;9.68;100.00
61119;BME280;51448;51.660;5.824;2023-04-01T07:11:03;99337.81;;;9.71;100.00
61119;BME280;51448;51.660;5.824;2023-04-01T07:14:12;99341.22;;;9.73;100.00
61119;BME280;51448;51.660;5.824;2023-04-01T07:16:51;99345.47;;;9.75;100.00
61119;BME280;51448;51.660;5.824;2023-04-01T07:19:59;99353.97;;;9.80;100.00
61119;BME280;51448;51.660;5.824;2023-04-01T07:22:39;99347.84;;;9.80;100.00
61119;BME280;51448;51.660;5.824;2023-04-01T07:25:30;99353.81;;;9.83;100.00
61119;BME280;51448;51.660;5.824;2023-04-01T07:28:22;99360.78;;;9.84;100.00
61119;BME280;51448;51.660;5.824;2023-04-01T07:37:12;99378.72;;;9.94;100.00
61119;BME280;51448;51.660;5.824;2023-04-01T07:40:12;99376.72;;;9.99;100.00
61119;BME280;51448;51.660;5.824;2023-04-01T07:51:55;99392.03;;;10.08;100.00
61119;BME280;51448;51.660;5.824;2023-04-01T07:55:01;99408.31;;;10.15;100.00
61119;BME280;51448;51.660;5.824;2023-04-01T07:57:43;99400.31;;;10.18;100.00
61119;BME280;51448;51.660;5.824;2023-04-01T08:00:51;99406.34;;;10.20;100.00
61119;BME280;51448;51.660;5.824;2023-04-01T08:06:33;99421.88;;;10.24;100.00
61119;BME280;51448;51.660;5.824;2023-04-01T08:22:26;99438.00;;;10.17;100.00
61119;BME280;51448;51.660;5.824;2023-04-01T08:25:02;99444.19;;;10.16;100.00
61119;BME280;51448;51.660;5.824;2023-04-01T08:27:38;99447.06;;;10.11;100.00
61119;BME280;51448;51.660;5.824;2023-04-01T08:30:24;99454.06;;;10.11;100.00
61119;BME280;51448;51.660;5.824;2023-04-01T08:32:59;99458.47;;;10.10;100.00
61119;BME280;51448;51.660;5.824;2023-04-01T08:35:38;99461.94;;;10.11;100.00
61119;BME280;51448;51.660;5.824;2023-04-01T08:38:26;99461.03;;;10.12;100.00
61119;BME280;51448;51.660;5.824;2023-04-01T08:41:21;99465.50;;;10.10;100.00
61119;BME280;51448;51.660;5.824;2023-04-01T08:50:26;99475.31;;;10.06;100.00
61119;BME280;51448;51.660;5.824;2023-04-01T09:00:32;99491.78;;;10.10;100.00
61119;BME280;51448;51.660;5.824;2023-04-01T09:17:51;99525.66;;;10.16;100.00
61119;BME280;51448;51.660;5.824;2023-04-01T09:20:58;99522.00;;;10.18;100.00
61119;BME280;51448;51.660;5.824;2023-04-01T09:36:02;99539.34;;;10.22;100.00
61119;BME280;51448;51.660;5.824;2023-04-01T09:42:00;99553.47;;;10.20;100.00
61119;BME280;51448;51.660;5.824;2023-04-01T09:54:24;99562.75;;;10.27;100.00
61119;BME280;51448;51.660;5.824;2023-04-01T10:01:27;99570.19;;;10.38;100.00
61119;BME280;51448;51.660;5.824;2023-04-01T10:07:18;99575.84;;;10.47;100.00
61119;BME280;51448;51.660;5.824;2023-04-01T10:16:25;99590.19;;;10.59;100.00
61119;BME280;51448;51.660;5.824;2023-04-01T10:25:49;99595.09;;;10.67;100.00
61119;BME280;51448;51.660;5.824;2023-04-01T10:28:50;99602.13;;;10.66;100.00
61119;BME280;51448;51.660;5.824;2023-04-01T10:55:22;99626.88;;;10.62;100.00
61119;BME280;51448;51.660;5.824;2023-04-01T11:11:18;99623.41;;;10.79;100.00
61119;BME280;51448;51.660;5.824;2023-04-01T11:17:11;99644.16;;;10.85;100.00
61119;BME280;51448;51.660;5.824;2023-04-01T11:20:06;99649.38;;;10.87;100.00
61119;BME280;51448;51.660;5.824;2023-04-01T11:22:51;99642.16;;;10.91;100.00
61119;BME280;51448;51.660;5.824;2023-04-01T11:31:43;99655.81;;;11.16;100.00
61119;BME280;51448;51.660;5.824;2023-04-01T11:44:19;99666.97;;;11.21;100.00
61119;BME280;51448;51.660;5.824;2023-04-01T12:02:06;99693.22;;;11.23;100.00
61119;BME280;51448;51.660;5.824;2023-04-01T12:05:03;99701.97;;;11.23;100.00
61119;BME280;51448;51.660;5.824;2023-04-01T12:08:00;99705.38;;;11.25;100.00
61119;BME280;51448;51.660;5.824;2023-04-01T12:10:40;99709.19;;;11.20;100.00
61119;BME280;51448;51.660;5.824;2023-04-01T12:16:59;99715.59;;;11.14;100.00
61119;BME280;51448;51.660;5.824;2023-04-01T12:22:57;99722.94;;;11.25;100.00
61119;BME280;51448;51.660;5.824;2023-04-01T12:28:51;99724.13;;;11.37;100.00
61119;BME280;51448;51.660;5.824;2023-04-01T12:31:39;99729.81;;;11.46;100.00
61119;BME280;51448;51.660;5.824;2023-04-01T12:49:34;99741.66;;;11.73;100.00
61119;BME280;51448;51.660;5.824;2023-04-01T12:55:41;99747.22;;;11.66;100.00
61119;BME280;51448;51.660;5.824;2023-04-01T13:15:54;99771.66;;;11.87;100.00
61119;BME280;51448;51.660;5.824;2023-04-01T13:21:42;99781.81;;;11.78;100.00
61119;BME280;51448;51.660;5.824;2023-04-01T13:27:21;99784.50;;;11.59;100.00
61119;BME280;51448;51.660;5.824;2023-04-01T13:30:30;99788.06;;;11.58;100.00
61119;BME280;51448;51.660;5.824;2023-04-01T13:36:42;99793.56;;;11.53;100.00
61119;BME280;51448;51.660;5.824;2023-04-01T13:42:14;99797.41;;;11.46;100.00
61119;BME280;51448;51.660;5.824;2023-04-01T13:51:18;99813.66;;;11.37;100.00
61119;BME280;51448;51.660;5.824;2023-04-01T14:00:35;99815.06;;;11.25;100.00
61119;BME280;51448;51.660;5.824;2023-04-01T14:12:00;99831.44;;;11.13;100.00
61119;BME280;51448;51.660;5.824;2023-04-01T14:27:24;99851.25;;;11.01;100.00
61119;BME280;51448;51.660;5.824;2023-04-01T14:48:30;99863.22;;;11.08;100.00
61119;BME280;51448;51.660;5.824;2023-04-01T14:54:14;99870.13;;;11.11;100.00
61119;BME280;51448;51.660;5.824;2023-04-01T14:57:14;99879.09;;;11.06;100.00
61119;BME280;51448;51.660;5.824;2023-04-01T14:59:54;99877.38;;;11.05;100.00
61119;BME280;51448;51.660;5.824;2023-04-01T15:06:32;99886.19;;;11.04;100.00
61119;BME280;51448;51.660;5.824;2023-04-01T15:18:07;99899.06;;;11.11;100.00
61119;BME280;51448;51.660;5.824;2023-04-01T15:21:13;99908.69;;;11.12;100.00
61119;BME280;51448;51.660;5.824;2023-04-01T15:38:44;99930.44;;;11.15;100.00
61119;BME280;51448;51.660;5.824;2023-04-01T15:42:04;99931.50;;;11.11;100.00
61119;BME280;51448;51.660;5.824;2023-04-01T15:52:41;99942.50;;;11.00;100.00
61119;BME280;51448;51.660;5.824;2023-04-01T15:55:42;99952.25;;;10.98;100.00
61119;BME280;51448;51.660;5.824;2023-04-01T16:01:59;99956.19;;;10.88;100.00
61119;BME280;51448;51.660;5.824;2023-04-01T16:05:00;99961.59;;;10.85;100.00
61119;BME280;51448;51.660;5.824;2023-04-01T16:17:31;99969.09;;;10.74;100.00
61119;BME280;51448;51.660;5.824;2023-04-01T16:23:09;99982.25;;;10.74;100.00
61119;BME280;51448;51.660;5.824;2023-04-01T16:25:52;99985.72;;;10.74;100.00
61119;BME280;51448;51.660;5.824;2023-04-01T16:28:34;99991.84;;;10.75;100.00
61119;BME280;51448;51.660;5.824;2023-04-01T16:34:36;99995.38;;;10.74;100.00
61119;BME280;51448;51.660;5.824;2023-04-01T16:37:21;99997.16;;;10.73;100.00
61119;BME280;51448;51.660;5.824;2023-04-01T16:40:25;100003.28;;;10.74;100.00
61119;BME280;51448;51.660;5.824;2023-04-01T16:46:28;100019.06;;;10.74;100.00
61119;BME280;51448;51.660;5.824;2023-04-01T16:51:41;100026.22;;;10.70;100.00
61119;BME280;51448;51.660;5.824;2023-04-01T16:59:39;100041.81;;;10.75;100.00
61119;BME280;51448;51.660;5.824;2023-04-01T17:02:45;100045.31;;;10.75;100.00
61119;BME280;51448;51.660;5.824;2023-04-01T17:05:20;100047.94;;;10.75;100.00
61119;BME280;51448;51.660;5.824;2023-04-01T17:11:16;100066.28;;;10.77;100.00
61119;BME280;51448;51.660;5.824;2023-04-01T17:17:35;100075.88;;;10.78;100.00
61119;BME280;51448;51.660;5.824;2023-04-01T17:28:49;100103.16;;;10.75;100.00
61119;BME280;51448;51.660;5.824;2023-04-01T17:34:38;100106.88;;;10.70;100.00
61119;BME280;51448;51.660;5.824;2023-04-01T17:51:32;100153.97;;;10.54;100.00
61119;BME280;51448;51.660;5.824;2023-04-01T17:57:31;100173.31;;;10.53;100.00
61119;BME280;51448;51.660;5.824;2023-04-01T18:06:21;100196.06;;;10.30;100.00
61119;BME280;51448;51.660;5.824;2023-04-01T18:15:19;100211.72;;;10.08;100.00
61119;BME280;51448;51.660;5.824;2023-04-01T18:18:05;100217.13;;;10.03;100.00
61119;BME280;51448;51.660;5.824;2023-04-01T18:20:55;100225.13;;;10.00;100.00
61119;BME280;51448;51.660;5.824;2023-04-01T18:23:36;100235.63;;;10.00;100.00
61119;BME280;51448;51.660;5.824;2023-04-01T18:26:35;100241.84;;;9.98;100.00
61119;BME280;51448;51.660;5.824;2023-04-01T18:29:32;100250.59;;;9.98;100.00
61119;BME280;51448;51.660;5.824;2023-04-01T18:32:31;100254.09;;;9.99;100.00
61119;BME280;51448;51.660;5.824;2023-04-01T18:35:29;100267.34;;;9.94;100.00
61119;BME280;51448;51.660;5.824;2023-04-01T18:38:31;100275.44;;;9.88;100.00
61119;BME280;51448;51.660;5.824;2023-04-01T18:41:20;100288.66;;;9.86;100.00
61119;BME280;51448;51.660;5.824;2023-04-01T18:44:23;100290.59;;;9.80;100.00
61119;BME280;51448;51.660;5.824;2023-04-01T18:53:30;100312.03;;;9.67;100.00
61119;BME280;51448;51.660;5.824;2023-04-01T18:56:13;100314.66;;;9.67;100.00
61119;BME280;51448;51.660;5.824;2023-04-01T19:02:00;100328.94;;;9.59;100.00
61119;BME280;51448;51.660;5.824;2023-04-01T19:04:40;100336.06;;;9.55;100.00
61119;BME280;51448;51.660;5.824;2023-04-01T19:07:42;100345.81;;;9.52;100.00
61119;BME280;51448;51.660;5.824;2023-04-01T19:10:39;100349.44;;;9.48;100.00
61119;BME280;51448;51.660;5.824;2023-04-01T19:19:43;100369.84;;;9.38;100.00
61119;BME280;51448;51.660;5.824;2023-04-01T19:28:20;100392.91;;;9.26;100.00
61119;BME280;51448;51.660;5.824;2023-04-01T19:30:58;100393.09;;;9.20;100.00
61119;BME280;51448;51.660;5.824;2023-04-01T19:36:56;100403.69;;;9.17;100.00
61119;BME280;51448;51.660;5.824;2023-04-01T19:50:27;100429.44;;;9.04;100.00
61119;BME280;51448;51.660;5.824;2023-04-01T20:01:22;100460.47;;;8.89;100.00
61119;BME280;51448;51.660;5.824;2023-04-01T20:04:17;100462.44;;;8.80;100.00
61119;BME280;51448;51.660;5.824;2023-04-01T20:06:57;100466.03;;;8.76;100.00
61119;BME280;51448;51.660;5.824;2023-04-01T20:09:47;100475.69;;;8.76;100.00
61119;BME280;51448;51.660;5.824;2023-04-01T20:15:07;100493.41;;;8.66;100.00
61119;BME280;51448;51.660;5.824;2023-04-01T20:17:48;100491.66;;;8.65;100.00
61119;BME280;51448;51.660;5.824;2023-04-01T20:20:21;100498.63;;;8.68;100.00
61119;BME280;51448;51.660;5.824;2023-04-01T20:23:26;100507.34;;;8.68;100.00
61119;BME280;51448;51.660;5.824;2023-04-01T20:26:10;100510.94;;;8.64;100.00
61119;BME280;51448;51.660;5.824;2023-04-01T20:40:41;100548.75;;;8.54;100.00
61119;BME280;51448;51.660;5.824;2023-04-01T20:43:22;100546.19;;;8.51;100.00
61119;BME280;51448;51.660;5.824;2023-04-01T20:46:06;100552.34;;;8.50;100.00
61119;BME280;51448;51.660;5.824;2023-04-01T20:51:38;100564.59;;;8.49;100.00
61119;BME280;51448;51.660;5.824;2023-04-01T20:57:31;100583.84;;;8.48;100.00
61119;BME280;51448;51.660;5.824;2023-04-01T21:00:27;100583.03;;;8.44;100.00
61119;BME280;51448;51.660;5.824;2023-04-01T21:03:33;100583.13;;;8.41;100.00
61119;BME280;51448;51.660;5.824;2023-04-01T21:06:18;100601.47;;;8.38;100.00
61119;BME280;51448;51.660;5.824;2023-04-01T21:12:18;100606.88;;;8.32;100.00
61119;BME280;51448;51.660;5.824;2023-04-01T21:18:31;100617.47;;;8.26;100.00
61119;BME280;51448;51.660;5.824;2023-04-01T21:21:27;100619.28;;;8.24;100.00
61119;BME280;51448;51.660;5.824;2023-04-01T21:27:03;100635.97;;;8.20;100.00
61119;BME280;51448;51.660;5.824;2023-04-01T21:36:20;100654.59;;;8.06;100.00
61119;BME280;51448;51.660;5.824;2023-04-01T21:39:25;100670.34;;;8.04;100.00
61119;BME280;51448;51.660;5.824;2023-04-01T21:48:08;100685.34;;;7.96;100.00
61119;BME280;51448;51.660;5.824;2023-04-01T21:57:41;100715.19;;;7.88;100.00
61119;BME280;51448;51.660;5.824;2023-04-01T22:00:24;100699.50;;;7.88;100.00
61119;BME280;51448;51.660;5.824;2023-04-01T22:03:13;100711.78;;;7.84;100.00
61119;BME280;51448;51.660;5.824;2023-04-01T22:09:37;100731.09;;;7.77;100.00
61119;BME280;51448;51.660;5.824;2023-04-01T22:12:17;100739.88;;;7.73;100.00
61119;BME280;51448;51.660;5.824;2023-04-01T22:15:04;100736.41;;;7.74;100.00
61119;BME280;51448;51.660;5.824;2023-04-01T22:21:00;100748.75;;;7.67;100.00
61119;BME280;51448;51.660;5.824;2023-04-01T22:24:07;100757.47;;;7.64;100.00
61119;BME280;51448;51.660;5.824;2023-04-01T22:30:07;100773.34;;;7.55;100.00
61119;BME280;51448;51.660;5.824;2023-04-01T22:39:51;100784.88;;;7.45;100.00
61119;BME280;51448;51.660;5.824;2023-04-01T22:48:15;100804.25;;;7.32;100.00
61119;BME280;51448;51.660;5.824;2023-04-01T22:51:15;100813.00;;;7.31;100.00
61119;BME280;51448;51.660;5.824;2023-04-01T22:54:04;100813.03;;;7.28;100.00
61119;BME280;51448;51.660;5.824;2023-04-01T22:56:43;100813.94;;;7.25;100.00
61119;BME280;51448;51.660;5.824;2023-04-01T22:59:22;100816.56;;;7.25;100.00
61119;BME280;51448;51.660;5.824;2023-04-01T23:02:28;100827.00;;;7.27;100.00
61119;BME280;51448;51.660;5.824;2023-04-01T23:05:02;100820.06;;;7.24;100.00
61119;BME280;51448;51.660;5.824;2023-04-01T23:10:42;100833.16;;;7.24;100.00
61119;BME280;51448;51.660;5.824;2023-04-01T23:13:22;100841.84;;;7.26;100.00
61119;BME280;51448;51.660;5.824;2023-04-01T23:15:57;100850.59;;;7.23;100.00
61119;BME280;51448;51.660;5.824;2023-04-01T23:21:29;100849.72;;;7.21;100.00
61119;BME280;51448;51.660;5.824;2023-04-01T23:29:50;100876.91;;;7.11;100.00
61119;BME280;51448;51.660;5.824;2023-04-01T23:32:22;100869.03;;;7.13;100.00
61119;BME280;51448;51.660;5.824;2023-04-01T23:34:55;100881.25;;;7.12;100.00
61119;BME280;51448;51.660;5.824;2023-04-01T23:37:26;100884.75;;;7.11;100.00
61119;BME280;51448;51.660;5.824;2023-04-01T23:39:57;100885.66;;;7.10;100.00
61119;BME280;51448;51.660;5.824;2023-04-01T23:42:29;100892.66;;;7.10;100.00